sensor_id;sensor_type;location;lat;lon;timestamp;temperature;humidity
30148;DHT22;16960;49.404;8.248;2022-10-24T00:00:50;21.50;56.80
30148;DHT22;16960;49.404;8.248;2022-10-24T00:03:18;21.50;56.80
30148;DHT22;16960;49.404;8.248;2022-10-24T00:05:46;21.50;56.70
30148;DHT22;16960;49.404;8.248;2022-10-24T00:08:14;21.50;56.70
30148;DHT22;16960;49.404;8.248;2022-10-24T00:10:41;21.50;56.70
30148;DHT22;16960;49.404;8.248;2022-10-24T00:13:10;21.50;56.80
30148;DHT22;16960;49.404;8.248;2022-10-24T00:15:37;21.50;56.90
30148;DHT22;16960;49.404;8.248;2022-10-24T00:18:04;21.40;56.70
30148;DHT22;16960;49.404;8.248;2022-10-24T00:20:32;21.40;56.70
30148;DHT22;16960;49.404;8.248;2022-10-24T00:23:01;21.40;56.70
30148;DHT22;16960;49.404;8.248;2022-10-24T00:25:28;21.40;56.70
30148;DHT22;16960;49.404;8.248;2022-10-24T00:27:55;21.40;56.70
30148;DHT22;16960;49.404;8.248;2022-10-24T00:30:22;21.50;56.80
30148;DHT22;16960;49.404;8.248;2022-10-24T00:32:50;21.40;56.60
30148;DHT22;16960;49.404;8.248;2022-10-24T00:35:17;21.40;56.60
30148;DHT22;16960;49.404;8.248;2022-10-24T00:37:45;21.40;56.60
30148;DHT22;16960;49.404;8.248;2022-10-24T00:40:15;21.40;56.70
30148;DHT22;16960;49.404;8.248;2022-10-24T00:42:43;21.40;56.70
30148;DHT22;16960;49.404;8.248;2022-10-24T00:45:39;21.40;56.70
30148;DHT22;16960;49.404;8.248;2022-10-24T00:48:15;21.40;56.70
30148;DHT22;16960;49.404;8.248;2022-10-24T00:50:44;21.40;56.70
30148;DHT22;16960;49.404;8.248;2022-10-24T00:53:13;21.40;56.70
30148;DHT22;16960;49.404;8.248;2022-10-24T00:55:42;21.40;56.60
30148;DHT22;16960;49.404;8.248;2022-10-24T00:58:12;21.40;56.70
30148;DHT22;16960;49.404;8.248;2022-10-24T01:00:39;21.40;56.70
30148;DHT22;16960;49.404;8.248;2022-10-24T01:03:06;21.40;56.70
30148;DHT22;16960;49.404;8.248;2022-10-24T01:05:50;21.30;56.70
30148;DHT22;16960;49.404;8.248;2022-10-24T01:08:25;21.30;56.70
30148;DHT22;16960;49.404;8.248;2022-10-24T01:10:59;21.30;56.70
30148;DHT22;16960;49.404;8.248;2022-10-24T01:13:36;21.30;56.70
30148;DHT22;16960;49.404;8.248;2022-10-24T01:16:12;21.30;56.70
30148;DHT22;16960;49.404;8.248;2022-10-24T01:18:46;21.30;56.80
30148;DHT22;16960;49.404;8.248;2022-10-24T01:21:24;21.30;56.80
30148;DHT22;16960;49.404;8.248;2022-10-24T01:24:16;21.30;56.80
30148;DHT22;16960;49.404;8.248;2022-10-24T01:27:18;21.30;56.80
30148;DHT22;16960;49.404;8.248;2022-10-24T01:29:58;21.30;56.80
30148;DHT22;16960;49.404;8.248;2022-10-24T01:32:34;21.30;56.80
30148;DHT22;16960;49.404;8.248;2022-10-24T01:35:07;21.30;56.80
30148;DHT22;16960;49.404;8.248;2022-10-24T01:37:42;21.30;56.80
30148;DHT22;16960;49.404;8.248;2022-10-24T01:40:15;21.30;56.80
30148;DHT22;16960;49.404;8.248;2022-10-24T01:42:44;21.30;56.70
30148;DHT22;16960;49.404;8.248;2022-10-24T01:45:17;21.30;56.70
30148;DHT22;16960;49.404;8.248;2022-10-24T01:47:47;21.20;56.60
30148;DHT22;16960;49.404;8.248;2022-10-24T01:50:17;21.30;56.70
30148;DHT22;16960;49.404;8.248;2022-10-24T01:52:46;21.20;56.60
30148;DHT22;16960;49.404;8.248;2022-10-24T01:55:14;21.30;56.70
30148;DHT22;16960;49.404;8.248;2022-10-24T01:57:41;21.20;56.60
30148;DHT22;16960;49.404;8.248;2022-10-24T02:00:11;21.20;56.60
30148;DHT22;16960;49.404;8.248;2022-10-24T02:02:42;21.20;56.60
30148;DHT22;16960;49.404;8.248;2022-10-24T02:05:15;21.20;56.60
30148;DHT22;16960;49.404;8.248;2022-10-24T02:07:46;21.20;56.60
30148;DHT22;16960;49.404;8.248;2022-10-24T02:10:18;21.20;56.50
30148;DHT22;16960;49.404;8.248;2022-10-24T02:12:49;21.20;56.50
30148;DHT22;16960;49.404;8.248;2022-10-24T02:15:21;21.20;56.60
30148;DHT22;16960;49.404;8.248;2022-10-24T02:17:51;21.20;56.60
30148;DHT22;16960;49.404;8.248;2022-10-24T02:20:25;21.20;56.80
30148;DHT22;16960;49.404;8.248;2022-10-24T02:22:58;21.20;56.80
30148;DHT22;16960;49.404;8.248;2022-10-24T02:25:30;21.20;56.80
30148;DHT22;16960;49.404;8.248;2022-10-24T02:28:04;21.20;56.80
30148;DHT22;16960;49.404;8.248;2022-10-24T02:30:34;21.10;57.40
30148;DHT22;16960;49.404;8.248;2022-10-24T02:33:04;21.20;56.80
30148;DHT22;16960;49.404;8.248;2022-10-24T02:35:34;21.20;56.70
30148;DHT22;16960;49.404;8.248;2022-10-24T02:38:06;21.10;56.70
30148;DHT22;16960;49.404;8.248;2022-10-24T02:40:36;21.20;56.70
30148;DHT22;16960;49.404;8.248;2022-10-24T02:43:04;21.10;56.70
30148;DHT22;16960;49.404;8.248;2022-10-24T02:45:33;21.10;56.70
30148;DHT22;16960;49.404;8.248;2022-10-24T02:48:07;21.10;56.60
30148;DHT22;16960;49.404;8.248;2022-10-24T02:50:36;21.10;56.60
30148;DHT22;16960;49.404;8.248;2022-10-24T02:53:05;21.10;56.60
30148;DHT22;16960;49.404;8.248;2022-10-24T02:55:34;21.10;56.60
30148;DHT22;16960;49.404;8.248;2022-10-24T02:58:00;21.10;56.60
30148;DHT22;16960;49.404;8.248;2022-10-24T03:00:27;21.10;56.60
30148;DHT22;16960;49.404;8.248;2022-10-24T03:02:54;21.10;56.60
30148;DHT22;16960;49.404;8.248;2022-10-24T03:05:23;21.10;56.60
30148;DHT22;16960;49.404;8.248;2022-10-24T03:07:49;21.10;56.70
30148;DHT22;16960;49.404;8.248;2022-10-24T03:10:17;21.10;56.70
30148;DHT22;16960;49.404;8.248;2022-10-24T03:12:44;21.10;56.60
30148;DHT22;16960;49.404;8.248;2022-10-24T03:15:11;21.10;56.70
30148;DHT22;16960;49.404;8.248;2022-10-24T03:17:37;21.10;56.60
30148;DHT22;16960;49.404;8.248;2022-10-24T03:20:05;21.10;56.60
30148;DHT22;16960;49.404;8.248;2022-10-24T03:22:33;21.10;56.60
30148;DHT22;16960;49.404;8.248;2022-10-24T03:25:00;21.10;56.60
30148;DHT22;16960;49.404;8.248;2022-10-24T03:27:28;21.10;56.60
30148;DHT22;16960;49.404;8.248;2022-10-24T03:29:55;21.10;56.60
30148;DHT22;16960;49.404;8.248;2022-10-24T03:32:22;21.00;56.50
30148;DHT22;16960;49.404;8.248;2022-10-24T03:34:49;21.00;56.60
30148;DHT22;16960;49.404;8.248;2022-10-24T03:37:16;21.00;56.60
30148;DHT22;16960;49.404;8.248;2022-10-24T03:39:45;21.00;56.60
30148;DHT22;16960;49.404;8.248;2022-10-24T03:42:12;21.00;56.60
30148;DHT22;16960;49.404;8.248;2022-10-24T03:44:39;21.00;56.50
30148;DHT22;16960;49.404;8.248;2022-10-24T03:47:06;21.00;56.50
30148;DHT22;16960;49.404;8.248;2022-10-24T03:49:33;21.00;56.60
30148;DHT22;16960;49.404;8.248;2022-10-24T03:51:59;21.00;56.50
30148;DHT22;16960;49.404;8.248;2022-10-24T03:54:26;21.00;56.50
30148;DHT22;16960;49.404;8.248;2022-10-24T03:56:55;21.00;56.50
30148;DHT22;16960;49.404;8.248;2022-10-24T03:59:22;21.00;56.50
30148;DHT22;16960;49.404;8.248;2022-10-24T04:01:49;21.00;56.50
30148;DHT22;16960;49.404;8.248;2022-10-24T04:04:15;21.00;56.50
30148;DHT22;16960;49.404;8.248;2022-10-24T04:06:42;21.00;56.50
30148;DHT22;16960;49.404;8.248;2022-10-24T04:09:09;21.00;56.50
30148;DHT22;16960;49.404;8.248;2022-10-24T04:11:37;20.90;56.50
30148;DHT22;16960;49.404;8.248;2022-10-24T04:14:05;21.00;56.50
30148;DHT22;16960;49.404;8.248;2022-10-24T04:16:32;21.00;56.60
30148;DHT22;16960;49.404;8.248;2022-10-24T04:18:59;21.00;56.50
30148;DHT22;16960;49.404;8.248;2022-10-24T04:21:27;20.90;56.60
30148;DHT22;16960;49.404;8.248;2022-10-24T04:23:53;20.90;56.60
30148;DHT22;16960;49.404;8.248;2022-10-24T04:26:21;20.90;56.60
30148;DHT22;16960;49.404;8.248;2022-10-24T04:28:48;21.00;56.50
30148;DHT22;16960;49.404;8.248;2022-10-24T04:31:16;21.00;56.60
30148;DHT22;16960;49.404;8.248;2022-10-24T04:33:43;20.90;56.60
30148;DHT22;16960;49.404;8.248;2022-10-24T04:36:10;20.90;56.50
30148;DHT22;16960;49.404;8.248;2022-10-24T04:38:37;20.90;56.50
30148;DHT22;16960;49.404;8.248;2022-10-24T04:41:04;20.90;56.40
30148;DHT22;16960;49.404;8.248;2022-10-24T04:43:31;20.90;56.40
30148;DHT22;16960;49.404;8.248;2022-10-24T04:45:58;20.90;56.40
30148;DHT22;16960;49.404;8.248;2022-10-24T04:48:28;20.90;56.40
30148;DHT22;16960;49.404;8.248;2022-10-24T04:50:55;20.90;56.40
30148;DHT22;16960;49.404;8.248;2022-10-24T04:53:22;20.90;56.40
30148;DHT22;16960;49.404;8.248;2022-10-24T04:55:49;20.90;56.40
30148;DHT22;16960;49.404;8.248;2022-10-24T04:58:16;20.90;56.40
30148;DHT22;16960;49.404;8.248;2022-10-24T05:00:43;20.90;56.40
30148;DHT22;16960;49.404;8.248;2022-10-24T05:03:13;20.90;56.40
30148;DHT22;16960;49.404;8.248;2022-10-24T05:05:41;20.90;56.30
30148;DHT22;16960;49.404;8.248;2022-10-24T05:08:08;20.90;56.30
30148;DHT22;16960;49.404;8.248;2022-10-24T05:10:35;20.90;56.40
30148;DHT22;16960;49.404;8.248;2022-10-24T05:13:02;20.90;56.40
30148;DHT22;16960;49.404;8.248;2022-10-24T05:15:29;20.90;56.50
30148;DHT22;16960;49.404;8.248;2022-10-24T05:17:56;20.90;56.50
30148;DHT22;16960;49.404;8.248;2022-10-24T05:20:23;20.90;56.50
30148;DHT22;16960;49.404;8.248;2022-10-24T05:22:52;20.90;56.50
30148;DHT22;16960;49.404;8.248;2022-10-24T05:25:19;20.80;56.50
30148;DHT22;16960;49.404;8.248;2022-10-24T05:27:46;20.80;56.40
30148;DHT22;16960;49.404;8.248;2022-10-24T05:30:13;20.90;56.50
30148;DHT22;16960;49.404;8.248;2022-10-24T05:32:40;20.80;56.40
30148;DHT22;16960;49.404;8.248;2022-10-24T05:35:08;20.90;56.50
30148;DHT22;16960;49.404;8.248;2022-10-24T05:37:35;20.80;56.40
30148;DHT22;16960;49.404;8.248;2022-10-24T05:40:06;20.80;56.40
30148;DHT22;16960;49.404;8.248;2022-10-24T05:42:33;20.80;56.40
30148;DHT22;16960;49.404;8.248;2022-10-24T05:44:59;20.80;56.50
30148;DHT22;16960;49.404;8.248;2022-10-24T05:47:26;20.80;56.50
30148;DHT22;16960;49.404;8.248;2022-10-24T05:49:53;20.80;56.60
30148;DHT22;16960;49.404;8.248;2022-10-24T05:52:20;20.80;56.60
30148;DHT22;16960;49.404;8.248;2022-10-24T05:54:47;20.80;56.60
30148;DHT22;16960;49.404;8.248;2022-10-24T05:57:15;20.80;56.70
30148;DHT22;16960;49.404;8.248;2022-10-24T05:59:42;20.80;57.50
30148;DHT22;16960;49.404;8.248;2022-10-24T06:02:16;20.80;57.10
30148;DHT22;16960;49.404;8.248;2022-10-24T06:04:43;20.90;57.10
30148;DHT22;16960;49.404;8.248;2022-10-24T06:07:11;20.90;56.90
30148;DHT22;16960;49.404;8.248;2022-10-24T06:09:39;20.90;56.90
30148;DHT22;16960;49.404;8.248;2022-10-24T06:12:06;20.90;56.60
30148;DHT22;16960;49.404;8.248;2022-10-24T06:14:36;21.00;56.50
30148;DHT22;16960;49.404;8.248;2022-10-24T06:17:04;21.00;56.30
30148;DHT22;16960;49.404;8.248;2022-10-24T06:19:34;21.00;56.30
30148;DHT22;16960;49.404;8.248;2022-10-24T06:22:02;21.00;56.30
30148;DHT22;16960;49.404;8.248;2022-10-24T06:24:29;21.10;56.30
30148;DHT22;16960;49.404;8.248;2022-10-24T06:26:56;21.10;56.30
30148;DHT22;16960;49.404;8.248;2022-10-24T06:29:23;21.10;56.20
30148;DHT22;16960;49.404;8.248;2022-10-24T06:31:51;21.10;56.20
30148;DHT22;16960;49.404;8.248;2022-10-24T06:34:18;21.10;56.20
30148;DHT22;16960;49.404;8.248;2022-10-24T06:36:45;21.10;56.10
30148;DHT22;16960;49.404;8.248;2022-10-24T06:39:12;21.10;56.10
30148;DHT22;16960;49.404;8.248;2022-10-24T06:41:39;21.10;55.90
30148;DHT22;16960;49.404;8.248;2022-10-24T06:44:06;21.10;55.90
30148;DHT22;16960;49.404;8.248;2022-10-24T06:46:33;21.10;55.80
30148;DHT22;16960;49.404;8.248;2022-10-24T06:49:02;21.10;55.80
30148;DHT22;16960;49.404;8.248;2022-10-24T06:51:29;21.10;55.70
30148;DHT22;16960;49.404;8.248;2022-10-24T06:53:56;21.10;55.70
30148;DHT22;16960;49.404;8.248;2022-10-24T06:56:23;21.10;55.60
30148;DHT22;16960;49.404;8.248;2022-10-24T06:58:50;21.10;55.60
30148;DHT22;16960;49.404;8.248;2022-10-24T07:01:19;21.10;55.80
30148;DHT22;16960;49.404;8.248;2022-10-24T07:03:47;21.20;55.80
30148;DHT22;16960;49.404;8.248;2022-10-24T07:06:17;21.20;55.80
30148;DHT22;16960;49.404;8.248;2022-10-24T07:08:45;21.20;55.70
30148;DHT22;16960;49.404;8.248;2022-10-24T07:11:12;21.20;55.80
30148;DHT22;16960;49.404;8.248;2022-10-24T07:13:39;21.20;55.70
30148;DHT22;16960;49.404;8.248;2022-10-24T07:16:06;21.20;55.70
30148;DHT22;16960;49.404;8.248;2022-10-24T07:18:33;21.20;55.70
30148;DHT22;16960;49.404;8.248;2022-10-24T07:21:01;21.30;55.70
30148;DHT22;16960;49.404;8.248;2022-10-24T07:23:29;21.20;55.60
30148;DHT22;16960;49.404;8.248;2022-10-24T07:26:00;21.30;55.70
30148;DHT22;16960;49.404;8.248;2022-10-24T07:28:27;21.30;55.70
30148;DHT22;16960;49.404;8.248;2022-10-24T07:30:54;21.30;55.60
30148;DHT22;16960;49.404;8.248;2022-10-24T07:33:21;21.40;55.70
30148;DHT22;16960;49.404;8.248;2022-10-24T07:35:48;21.40;55.70
30148;DHT22;16960;49.404;8.248;2022-10-24T07:38:16;21.40;55.70
30148;DHT22;16960;49.404;8.248;2022-10-24T07:40:44;21.40;55.70
30148;DHT22;16960;49.404;8.248;2022-10-24T07:43:11;21.40;55.70
30148;DHT22;16960;49.404;8.248;2022-10-24T07:45:39;21.40;55.70
30148;DHT22;16960;49.404;8.248;2022-10-24T07:48:07;21.40;55.80
30148;DHT22;16960;49.404;8.248;2022-10-24T07:50:34;21.40;55.80
30148;DHT22;16960;49.404;8.248;2022-10-24T07:53:06;21.40;55.80
30148;DHT22;16960;49.404;8.248;2022-10-24T07:55:36;21.40;55.90
30148;DHT22;16960;49.404;8.248;2022-10-24T07:58:05;21.40;55.80
30148;DHT22;16960;49.404;8.248;2022-10-24T08:00:33;21.40;55.80
30148;DHT22;16960;49.404;8.248;2022-10-24T08:03:00;21.50;56.10
30148;DHT22;16960;49.404;8.248;2022-10-24T08:05:27;21.40;55.90
30148;DHT22;16960;49.404;8.248;2022-10-24T08:07:54;21.40;55.90
30148;DHT22;16960;49.404;8.248;2022-10-24T08:10:21;21.50;56.00
30148;DHT22;16960;49.404;8.248;2022-10-24T08:12:48;21.50;55.90
30148;DHT22;16960;49.404;8.248;2022-10-24T08:15:16;21.50;56.00
30148;DHT22;16960;49.404;8.248;2022-10-24T08:17:43;21.50;56.00
30148;DHT22;16960;49.404;8.248;2022-10-24T08:20:10;21.50;56.10
30148;DHT22;16960;49.404;8.248;2022-10-24T08:22:37;21.50;56.20
30148;DHT22;16960;49.404;8.248;2022-10-24T08:25:05;21.50;56.20
30148;DHT22;16960;49.404;8.248;2022-10-24T08:27:36;21.50;56.20
30148;DHT22;16960;49.404;8.248;2022-10-24T08:30:04;21.50;56.20
30148;DHT22;16960;49.404;8.248;2022-10-24T08:32:33;21.50;56.10
30148;DHT22;16960;49.404;8.248;2022-10-24T08:35:00;21.50;56.20
30148;DHT22;16960;49.404;8.248;2022-10-24T08:37:27;21.50;56.20
30148;DHT22;16960;49.404;8.248;2022-10-24T08:39:54;21.60;56.20
30148;DHT22;16960;49.404;8.248;2022-10-24T08:42:22;21.60;56.00
30148;DHT22;16960;49.404;8.248;2022-10-24T08:44:50;21.60;56.00
30148;DHT22;16960;49.404;8.248;2022-10-24T08:47:24;21.60;56.00
30148;DHT22;16960;49.404;8.248;2022-10-24T08:49:57;21.60;56.00
30148;DHT22;16960;49.404;8.248;2022-10-24T08:52:29;21.60;56.00
30148;DHT22;16960;49.404;8.248;2022-10-24T08:54:58;21.50;56.90
30148;DHT22;16960;49.404;8.248;2022-10-24T08:57:28;21.60;56.60
30148;DHT22;16960;49.404;8.248;2022-10-24T08:59:58;21.60;56.50
30148;DHT22;16960;49.404;8.248;2022-10-24T09:02:29;21.60;56.50
30148;DHT22;16960;49.404;8.248;2022-10-24T09:05:01;21.60;57.10
30148;DHT22;16960;49.404;8.248;2022-10-24T09:07:28;21.60;56.40
30148;DHT22;16960;49.404;8.248;2022-10-24T09:10:04;21.60;56.40
30148;DHT22;16960;49.404;8.248;2022-10-24T09:12:33;21.60;56.30
30148;DHT22;16960;49.404;8.248;2022-10-24T09:15:04;21.60;56.30
30148;DHT22;16960;49.404;8.248;2022-10-24T09:17:34;21.60;56.40
30148;DHT22;16960;49.404;8.248;2022-10-24T09:20:18;21.60;56.50
30148;DHT22;16960;49.404;8.248;2022-10-24T09:22:46;21.60;56.70
30148;DHT22;16960;49.404;8.248;2022-10-24T09:25:15;21.60;56.70
30148;DHT22;16960;49.404;8.248;2022-10-24T09:27:43;21.70;56.90
30148;DHT22;16960;49.404;8.248;2022-10-24T09:30:16;21.70;56.90
30148;DHT22;16960;49.404;8.248;2022-10-24T09:32:43;21.70;56.70
30148;DHT22;16960;49.404;8.248;2022-10-24T09:35:17;21.70;56.60
30148;DHT22;16960;49.404;8.248;2022-10-24T09:37:46;21.70;56.60
30148;DHT22;16960;49.404;8.248;2022-10-24T09:40:20;21.70;56.50
30148;DHT22;16960;49.404;8.248;2022-10-24T09:42:59;21.70;56.50
30148;DHT22;16960;49.404;8.248;2022-10-24T09:45:38;21.70;56.50
30148;DHT22;16960;49.404;8.248;2022-10-24T09:48:15;21.70;56.60
30148;DHT22;16960;49.404;8.248;2022-10-24T09:50:46;21.70;56.50
30148;DHT22;16960;49.404;8.248;2022-10-24T09:53:25;21.70;56.50
30148;DHT22;16960;49.404;8.248;2022-10-24T09:55:56;21.80;56.30
30148;DHT22;16960;49.404;8.248;2022-10-24T09:58:27;21.80;56.30
30148;DHT22;16960;49.404;8.248;2022-10-24T10:01:02;21.70;56.30
30148;DHT22;16960;49.404;8.248;2022-10-24T10:03:29;21.80;56.30
30148;DHT22;16960;49.404;8.248;2022-10-24T10:06:00;21.80;56.20
30148;DHT22;16960;49.404;8.248;2022-10-24T10:08:30;21.80;56.20
30148;DHT22;16960;49.404;8.248;2022-10-24T10:11:01;21.80;56.20
30148;DHT22;16960;49.404;8.248;2022-10-24T10:13:29;21.90;56.20
30148;DHT22;16960;49.404;8.248;2022-10-24T10:16:03;21.80;56.20
30148;DHT22;16960;49.404;8.248;2022-10-24T10:18:33;21.80;56.20
30148;DHT22;16960;49.404;8.248;2022-10-24T10:21:09;21.90;56.40
30148;DHT22;16960;49.404;8.248;2022-10-24T10:23:38;21.90;56.30
30148;DHT22;16960;49.404;8.248;2022-10-24T10:28:59;21.80;56.20
30148;DHT22;16960;49.404;8.248;2022-10-24T10:31:32;21.80;56.40
30148;DHT22;16960;49.404;8.248;2022-10-24T10:34:20;21.90;56.50
30148;DHT22;16960;49.404;8.248;2022-10-24T10:37:09;21.90;56.50
30148;DHT22;16960;49.404;8.248;2022-10-24T10:39:54;21.90;56.50
30148;DHT22;16960;49.404;8.248;2022-10-24T10:42:34;21.80;56.60
30148;DHT22;16960;49.404;8.248;2022-10-24T10:45:15;21.90;56.80
30148;DHT22;16960;49.404;8.248;2022-10-24T10:47:51;21.90;56.80
30148;DHT22;16960;49.404;8.248;2022-10-24T10:50:27;21.90;56.90
30148;DHT22;16960;49.404;8.248;2022-10-24T10:53:14;21.90;56.90
30148;DHT22;16960;49.404;8.248;2022-10-24T10:55:50;21.90;56.90
30148;DHT22;16960;49.404;8.248;2022-10-24T10:58:28;21.90;56.90
30148;DHT22;16960;49.404;8.248;2022-10-24T11:01:00;21.90;57.10
30148;DHT22;16960;49.404;8.248;2022-10-24T11:03:36;21.90;57.10
30148;DHT22;16960;49.404;8.248;2022-10-24T11:06:18;21.90;57.10
30148;DHT22;16960;49.404;8.248;2022-10-24T11:11:43;21.90;57.30
30148;DHT22;16960;49.404;8.248;2022-10-24T11:14:21;21.90;57.40
30148;DHT22;16960;49.404;8.248;2022-10-24T11:16:53;22.00;57.40
30148;DHT22;16960;49.404;8.248;2022-10-24T11:19:25;22.00;57.10
30148;DHT22;16960;49.404;8.248;2022-10-24T11:21:53;22.00;57.30
30148;DHT22;16960;49.404;8.248;2022-10-24T11:24:23;22.10;57.40
30148;DHT22;16960;49.404;8.248;2022-10-24T11:26:54;22.10;57.30
30148;DHT22;16960;49.404;8.248;2022-10-24T11:29:28;22.20;57.10
30148;DHT22;16960;49.404;8.248;2022-10-24T11:31:59;22.20;56.90
30148;DHT22;16960;49.404;8.248;2022-10-24T11:34:31;22.20;56.90
30148;DHT22;16960;49.404;8.248;2022-10-24T11:37:03;22.20;56.80
30148;DHT22;16960;49.404;8.248;2022-10-24T11:39:37;22.20;56.70
30148;DHT22;16960;49.404;8.248;2022-10-24T11:42:13;22.30;56.70
30148;DHT22;16960;49.404;8.248;2022-10-24T11:44:46;22.30;56.60
30148;DHT22;16960;49.404;8.248;2022-10-24T11:47:42;22.30;56.40
30148;DHT22;16960;49.404;8.248;2022-10-24T11:50:16;22.40;56.30
30148;DHT22;16960;49.404;8.248;2022-10-24T11:52:49;22.50;56.20
30148;DHT22;16960;49.404;8.248;2022-10-24T11:55:19;22.50;56.70
30148;DHT22;16960;49.404;8.248;2022-10-24T11:57:50;22.60;55.90
30148;DHT22;16960;49.404;8.248;2022-10-24T12:00:22;22.60;56.00
30148;DHT22;16960;49.404;8.248;2022-10-24T12:03:17;22.60;56.50
30148;DHT22;16960;49.404;8.248;2022-10-24T12:06:09;22.60;56.30
30148;DHT22;16960;49.404;8.248;2022-10-24T12:09:04;22.70;56.20
30148;DHT22;16960;49.404;8.248;2022-10-24T12:12:02;22.80;56.00
30148;DHT22;16960;49.404;8.248;2022-10-24T12:15:04;22.80;56.00
30148;DHT22;16960;49.404;8.248;2022-10-24T12:20:26;22.80;55.60
30148;DHT22;16960;49.404;8.248;2022-10-24T12:22:54;22.80;55.50
30148;DHT22;16960;49.404;8.248;2022-10-24T12:25:27;22.90;55.40
30148;DHT22;16960;49.404;8.248;2022-10-24T12:27:58;22.90;55.60
30148;DHT22;16960;49.404;8.248;2022-10-24T12:30:26;22.90;55.40
30148;DHT22;16960;49.404;8.248;2022-10-24T12:32:57;22.90;55.20
30148;DHT22;16960;49.404;8.248;2022-10-24T12:35:49;22.90;55.10
30148;DHT22;16960;49.404;8.248;2022-10-24T12:41:43;22.90;55.00
30148;DHT22;16960;49.404;8.248;2022-10-24T12:44:40;23.00;55.00
30148;DHT22;16960;49.404;8.248;2022-10-24T12:47:30;23.00;54.70
30148;DHT22;16960;49.404;8.248;2022-10-24T12:49:58;23.10;54.60
30148;DHT22;16960;49.404;8.248;2022-10-24T12:53:04;23.10;54.50
30148;DHT22;16960;49.404;8.248;2022-10-24T12:58:33;23.20;54.40
30148;DHT22;16960;49.404;8.248;2022-10-24T13:01:03;23.20;54.30
30148;DHT22;16960;49.404;8.248;2022-10-24T13:03:54;23.30;54.30
30148;DHT22;16960;49.404;8.248;2022-10-24T13:06:32;23.30;54.30
30148;DHT22;16960;49.404;8.248;2022-10-24T13:09:15;23.30;54.20
30148;DHT22;16960;49.404;8.248;2022-10-24T13:12:04;23.30;54.20
30148;DHT22;16960;49.404;8.248;2022-10-24T13:14:53;23.30;54.30
30148;DHT22;16960;49.404;8.248;2022-10-24T13:17:29;23.30;54.20
30148;DHT22;16960;49.404;8.248;2022-10-24T13:20:04;23.30;54.20
30148;DHT22;16960;49.404;8.248;2022-10-24T13:22:34;23.30;54.20
30148;DHT22;16960;49.404;8.248;2022-10-24T13:34:23;23.20;54.20
30148;DHT22;16960;49.404;8.248;2022-10-24T13:36:58;23.20;54.30
30148;DHT22;16960;49.404;8.248;2022-10-24T13:39:28;23.20;54.30
30148;DHT22;16960;49.404;8.248;2022-10-24T13:41:58;23.10;54.50
30148;DHT22;16960;49.404;8.248;2022-10-24T13:44:33;23.20;54.40
30148;DHT22;16960;49.404;8.248;2022-10-24T13:47:10;23.20;54.40
30148;DHT22;16960;49.404;8.248;2022-10-24T13:49:47;23.20;54.30
30148;DHT22;16960;49.404;8.248;2022-10-24T13:52:19;23.20;54.30
30148;DHT22;16960;49.404;8.248;2022-10-24T13:54:49;23.20;54.20
30148;DHT22;16960;49.404;8.248;2022-10-24T13:57:23;23.20;54.30
30148;DHT22;16960;49.404;8.248;2022-10-24T13:59:55;23.20;54.30
30148;DHT22;16960;49.404;8.248;2022-10-24T14:02:24;23.20;54.30
30148;DHT22;16960;49.404;8.248;2022-10-24T14:04:53;23.20;54.30
30148;DHT22;16960;49.404;8.248;2022-10-24T14:07:24;23.20;54.30
30148;DHT22;16960;49.404;8.248;2022-10-24T14:09:57;23.20;54.30
30148;DHT22;16960;49.404;8.248;2022-10-24T14:12:27;23.20;54.60
30148;DHT22;16960;49.404;8.248;2022-10-24T14:14:55;23.20;54.30
30148;DHT22;16960;49.404;8.248;2022-10-24T14:17:24;23.20;54.20
30148;DHT22;16960;49.404;8.248;2022-10-24T14:19:55;23.30;54.20
30148;DHT22;16960;49.404;8.248;2022-10-24T14:22:25;23.30;54.20
30148;DHT22;16960;49.404;8.248;2022-10-24T14:24:52;23.30;54.20
30148;DHT22;16960;49.404;8.248;2022-10-24T14:27:20;23.30;54.20
30148;DHT22;16960;49.404;8.248;2022-10-24T14:29:56;23.30;54.40
30148;DHT22;16960;49.404;8.248;2022-10-24T14:32:25;23.30;54.30
30148;DHT22;16960;49.404;8.248;2022-10-24T14:34:55;23.30;54.30
30148;DHT22;16960;49.404;8.248;2022-10-24T14:37:27;23.30;54.30
30148;DHT22;16960;49.404;8.248;2022-10-24T14:39:56;23.30;54.30
30148;DHT22;16960;49.404;8.248;2022-10-24T14:42:23;23.20;54.30
30148;DHT22;16960;49.404;8.248;2022-10-24T14:44:51;23.20;54.30
30148;DHT22;16960;49.404;8.248;2022-10-24T14:47:27;23.20;54.30
30148;DHT22;16960;49.404;8.248;2022-10-24T14:49:56;23.20;54.30
30148;DHT22;16960;49.404;8.248;2022-10-24T14:52:25;23.20;54.40
30148;DHT22;16960;49.404;8.248;2022-10-24T14:54:56;23.20;54.30
30148;DHT22;16960;49.404;8.248;2022-10-24T14:57:26;23.20;54.50
30148;DHT22;16960;49.404;8.248;2022-10-24T14:59:54;23.20;54.40
30148;DHT22;16960;49.404;8.248;2022-10-24T15:02:25;23.20;54.40
30148;DHT22;16960;49.404;8.248;2022-10-24T15:05:13;23.20;54.30
30148;DHT22;16960;49.404;8.248;2022-10-24T15:07:41;23.20;54.30
30148;DHT22;16960;49.404;8.248;2022-10-24T15:10:25;23.20;54.30
30148;DHT22;16960;49.404;8.248;2022-10-24T15:12:59;23.20;54.30
30148;DHT22;16960;49.404;8.248;2022-10-24T15:15:30;23.20;54.30
30148;DHT22;16960;49.404;8.248;2022-10-24T15:17:58;23.20;54.30
30148;DHT22;16960;49.404;8.248;2022-10-24T15:20:34;23.20;54.40
30148;DHT22;16960;49.404;8.248;2022-10-24T15:23:02;23.10;54.40
30148;DHT22;16960;49.404;8.248;2022-10-24T15:25:31;23.10;54.50
30148;DHT22;16960;49.404;8.248;2022-10-24T15:28:00;23.10;54.60
30148;DHT22;16960;49.404;8.248;2022-10-24T15:30:30;23.00;54.50
30148;DHT22;16960;49.404;8.248;2022-10-24T15:32:59;23.00;54.60
30148;DHT22;16960;49.404;8.248;2022-10-24T15:35:26;23.00;54.70
30148;DHT22;16960;49.404;8.248;2022-10-24T15:37:56;22.90;54.70
30148;DHT22;16960;49.404;8.248;2022-10-24T15:40:29;22.90;54.80
30148;DHT22;16960;49.404;8.248;2022-10-24T15:42:56;22.80;54.80
30148;DHT22;16960;49.404;8.248;2022-10-24T15:45:23;22.80;54.90
30148;DHT22;16960;49.404;8.248;2022-10-24T15:47:50;22.80;55.00
30148;DHT22;16960;49.404;8.248;2022-10-24T15:50:20;22.80;55.10
30148;DHT22;16960;49.404;8.248;2022-10-24T15:52:49;22.70;55.10
30148;DHT22;16960;49.404;8.248;2022-10-24T15:55:20;22.70;55.20
30148;DHT22;16960;49.404;8.248;2022-10-24T15:57:47;22.70;55.30
30148;DHT22;16960;49.404;8.248;2022-10-24T16:00:16;22.70;55.40
30148;DHT22;16960;49.404;8.248;2022-10-24T16:02:44;22.60;55.30
30148;DHT22;16960;49.404;8.248;2022-10-24T16:05:15;22.60;55.30
30148;DHT22;16960;49.404;8.248;2022-10-24T16:07:43;22.60;55.50
30148;DHT22;16960;49.404;8.248;2022-10-24T16:10:12;22.50;55.50
30148;DHT22;16960;49.404;8.248;2022-10-24T16:12:42;22.50;55.60
30148;DHT22;16960;49.404;8.248;2022-10-24T16:15:17;22.50;55.60
30148;DHT22;16960;49.404;8.248;2022-10-24T16:17:44;22.50;55.70